createdAt,value
2023-03-10T00:02:20.197Z,2.63
2023-03-10T00:04:51.172Z,3.17
2023-03-10T00:07:19.508Z,3.30
2023-03-10T00:09:48.007Z,2.38
2023-03-10T00:12:15.843Z,2.03
2023-03-10T00:14:43.716Z,1.75
2023-03-10T00:17:12.903Z,4.10
2023-03-10T00:19:42.000Z,1.48
2023-03-10T00:22:09.836Z,2.20
2023-03-10T00:24:37.675Z,2.33
2023-03-10T00:27:05.893Z,2.17
2023-03-10T00:29:33.816Z,2.15
2023-03-10T00:34:32.495Z,1.98
2023-03-10T00:37:00.389Z,2.83
2023-03-10T00:39:28.249Z,4.32
2023-03-10T00:41:56.281Z,3.25
2023-03-10T00:44:24.117Z,1.48
2023-03-10T00:46:52.056Z,3.53
2023-03-10T00:49:20.022Z,2.72
2023-03-10T00:51:49.275Z,3.03
2023-03-10T00:54:17.172Z,1.80
2023-03-10T00:56:45.049Z,2.97
2023-03-10T00:59:13.442Z,1.58
2023-03-10T01:01:43.294Z,1.63
2023-03-10T01:04:14.786Z,1.17
2023-03-10T01:06:47.602Z,2.08
2023-03-10T01:09:17.942Z,1.40
2023-03-10T01:11:46.558Z,1.40
2023-03-10T01:14:16.094Z,1.45
2023-03-10T01:16:44.429Z,2.85
2023-03-10T01:19:12.397Z,2.58
2023-03-10T01:21:40.444Z,2.00
2023-03-10T01:24:12.358Z,2.95
2023-03-10T01:26:41.611Z,1.33
2023-03-10T01:31:37.218Z,1.73
2023-03-10T01:34:05.225Z,1.27
2023-03-10T01:36:33.107Z,3.95
2023-03-10T01:39:01.415Z,1.70
2023-03-10T01:41:29.319Z,1.15
2023-03-10T01:43:59.034Z,1.85
2023-03-10T01:46:50.549Z,4.53
2023-03-10T01:49:31.383Z,1.85
2023-03-10T01:52:03.593Z,1.10
2023-03-10T01:54:37.766Z,1.88
2023-03-10T01:57:06.225Z,3.90
2023-03-10T01:59:35.913Z,1.13
2023-03-10T02:02:04.498Z,0.80
2023-03-10T02:04:38.053Z,3.15
2023-03-10T02:07:07.797Z,2.85
2023-03-10T02:09:39.095Z,1.15
2023-03-10T02:12:08.580Z,0.82
2023-03-10T02:17:08.021Z,1.50
2023-03-10T02:19:57.646Z,2.72
2023-03-10T02:22:25.615Z,1.27
2023-03-10T02:24:59.026Z,2.95
2023-03-10T02:27:32.337Z,4.28
2023-03-10T02:30:04.238Z,3.35
2023-03-10T02:32:39.158Z,4.20
2023-03-10T02:35:07.911Z,8.18
2023-03-10T02:37:41.817Z,5.90
2023-03-10T02:40:40.310Z,7.10
2023-03-10T02:43:19.882Z,4.85
2023-03-10T02:45:52.665Z,7.32
2023-03-10T02:48:28.178Z,2.15
2023-03-10T02:50:57.690Z,5.07
2023-03-10T02:53:28.677Z,4.20
2023-03-10T02:55:57.459Z,4.18
2023-03-10T02:58:28.494Z,2.88
2023-03-10T03:00:56.740Z,3.17
2023-03-10T03:03:25.043Z,2.63
2023-03-10T03:05:53.633Z,3.33
2023-03-10T03:08:21.638Z,4.75
2023-03-10T03:10:50.415Z,6.45
2023-03-10T03:13:18.538Z,4.28
2023-03-10T03:15:48.724Z,3.63
2023-03-10T03:18:16.828Z,5.40
2023-03-10T03:20:44.897Z,3.10
2023-03-10T03:23:13.937Z,4.82
2023-03-10T03:25:43.075Z,3.22
2023-03-10T03:28:13.867Z,4.07
2023-03-10T03:30:47.038Z,8.05
2023-03-10T03:33:15.757Z,10.43
2023-03-10T03:35:44.866Z,4.75
2023-03-10T03:40:45.122Z,10.48
2023-03-10T03:43:15.755Z,5.65
2023-03-10T03:45:44.768Z,7.32
2023-03-10T03:48:15.148Z,16.85
2023-03-10T03:50:43.672Z,10.25
2023-03-10T03:53:21.565Z,7.93
2023-03-10T03:55:50.841Z,12.20
2023-03-10T03:58:21.071Z,13.07
2023-03-10T04:00:51.634Z,5.70
2023-03-10T04:03:21.605Z,8.05
2023-03-10T04:05:49.906Z,29.55
2023-03-10T04:08:18.312Z,8.73
2023-03-10T04:10:51.555Z,4.95
2023-03-10T04:13:20.428Z,5.25
2023-03-10T04:15:48.275Z,7.85
2023-03-10T04:18:16.265Z,7.00
2023-03-10T04:20:45.472Z,6.20
2023-03-10T04:25:43.100Z,15.00
2023-03-10T04:28:12.532Z,3.30
2023-03-10T04:30:43.204Z,6.13
2023-03-10T04:33:12.332Z,5.72
2023-03-10T04:35:42.393Z,5.80
2023-03-10T04:38:12.433Z,6.63
2023-03-10T04:40:40.742Z,7.95
2023-03-10T04:43:08.704Z,7.05
2023-03-10T04:45:36.864Z,7.18
2023-03-10T04:48:04.897Z,3.75
2023-03-10T04:50:32.861Z,5.30
2023-03-10T04:53:00.810Z,7.63
2023-03-10T04:55:32.693Z,7.72
2023-03-10T04:58:01.608Z,5.78
2023-03-10T05:00:29.717Z,8.38
2023-03-10T05:02:57.713Z,3.95
2023-03-10T05:05:25.595Z,5.90
2023-03-10T05:07:53.551Z,4.38
2023-03-10T05:10:21.645Z,7.47
2023-03-10T05:12:50.829Z,4.95
2023-03-10T05:15:19.551Z,2.95
2023-03-10T05:17:50.019Z,5.47
2023-03-10T05:20:19.232Z,9.10
2023-03-10T05:22:47.140Z,4.68
2023-03-10T05:25:15.021Z,9.65
2023-03-10T05:27:43.462Z,5.68
2023-03-10T05:30:15.962Z,2.97
2023-03-10T05:32:46.697Z,4.63
2023-03-10T05:35:15.116Z,5.95
2023-03-10T05:37:45.374Z,6.80
2023-03-10T05:40:16.014Z,4.90
2023-03-10T05:42:44.540Z,3.15
2023-03-10T05:45:14.702Z,6.38
2023-03-10T05:47:43.276Z,4.13
2023-03-10T05:50:14.163Z,4.10
2023-03-10T05:52:44.084Z,4.30
2023-03-10T05:55:14.871Z,4.95
2023-03-10T05:57:43.450Z,5.90
2023-03-10T06:00:15.164Z,5.80
2023-03-10T06:02:46.803Z,7.07
2023-03-10T06:05:14.937Z,6.93
2023-03-10T06:07:43.024Z,5.30
2023-03-10T06:10:11.681Z,4.93
2023-03-10T06:12:39.736Z,7.13
2023-03-10T06:15:08.802Z,2.40
2023-03-10T06:17:38.194Z,8.23
2023-03-10T06:20:07.162Z,3.33
2023-03-10T06:22:35.095Z,7.32
2023-03-10T06:25:03.227Z,7.68
2023-03-10T06:27:32.016Z,8.23
2023-03-10T06:30:00.045Z,5.72
2023-03-10T06:32:28.157Z,7.40
2023-03-10T06:34:59.873Z,6.57
2023-03-10T06:37:28.106Z,6.68
2023-03-10T06:39:56.177Z,11.45
2023-03-10T06:42:24.000Z,7.95
2023-03-10T06:44:55.418Z,7.28
2023-03-10T06:47:23.340Z,7.80
2023-03-10T06:49:51.192Z,6.50
2023-03-10T06:52:20.403Z,7.47
2023-03-10T06:54:48.326Z,9.30
2023-03-10T06:57:16.279Z,8.38
2023-03-10T06:59:44.141Z,10.57
2023-03-10T07:02:12.601Z,8.38
2023-03-10T07:04:41.338Z,8.07
2023-03-10T07:07:09.222Z,5.68
2023-03-10T07:09:38.489Z,8.95
2023-03-10T07:12:07.282Z,4.07
2023-03-10T07:14:35.135Z,9.20
2023-03-10T07:17:03.791Z,7.30
2023-03-10T07:19:32.072Z,10.50
2023-03-10T07:21:59.928Z,7.72
2023-03-10T07:24:27.823Z,7.70
2023-03-10T07:26:59.610Z,8.57
2023-03-10T07:29:27.715Z,12.63
2023-03-10T07:31:55.937Z,9.30
2023-03-10T07:34:24.015Z,10.02
2023-03-10T07:36:51.949Z,10.13
2023-03-10T07:39:19.875Z,6.55
2023-03-10T07:41:47.960Z,10.70
2023-03-10T07:44:18.111Z,7.38
2023-03-10T07:46:46.082Z,7.28
2023-03-10T07:49:13.998Z,8.65
2023-03-10T07:51:41.839Z,8.60
2023-03-10T07:54:10.273Z,9.55
2023-03-10T07:56:38.200Z,13.03
2023-03-10T07:59:06.125Z,5.70
2023-03-10T08:01:35.571Z,5.05
2023-03-10T08:04:03.682Z,11.80
2023-03-10T08:06:32.791Z,8.43
2023-03-10T08:09:00.645Z,6.55
2023-03-10T08:11:28.591Z,11.77
2023-03-10T08:13:56.703Z,11.15
2023-03-10T08:16:25.206Z,6.82
2023-03-10T08:18:54.841Z,7.75
2023-03-10T08:21:23.089Z,8.40
2023-03-10T08:23:51.008Z,10.95
2023-03-10T08:26:20.263Z,8.93
2023-03-10T08:31:18.000Z,8.40
2023-03-10T08:33:47.174Z,7.03
2023-03-10T08:36:18.488Z,6.45
2023-03-10T08:38:46.830Z,10.55
2023-03-10T08:41:17.248Z,9.20
2023-03-10T08:43:48.990Z,6.40
2023-03-10T08:46:18.036Z,8.13
2023-03-10T08:48:46.249Z,7.18
2023-03-10T08:51:16.093Z,10.05
2023-03-10T08:53:47.703Z,7.78
2023-03-10T08:56:16.016Z,7.03
2023-03-10T08:58:43.925Z,5.85
2023-03-10T09:01:12.435Z,6.75
2023-03-10T09:03:41.524Z,2.80
2023-03-10T09:08:37.378Z,6.90
2023-03-10T09:11:06.869Z,6.38
2023-03-10T09:13:34.813Z,7.75
2023-03-10T09:16:02.819Z,5.00
2023-03-10T09:18:30.982Z,8.98
2023-03-10T09:20:59.095Z,5.47
2023-03-10T09:23:27.048Z,6.72
2023-03-10T09:25:54.957Z,7.50
2023-03-10T09:28:24.204Z,5.80
2023-03-10T09:33:23.098Z,7.63
2023-03-10T09:36:06.028Z,6.28
2023-03-10T09:38:35.348Z,12.32
2023-03-10T09:41:10.758Z,7.60
2023-03-10T09:43:42.367Z,7.35
2023-03-10T09:46:21.135Z,3.95
2023-03-10T09:48:54.339Z,7.90
2023-03-10T09:51:24.065Z,5.68
2023-03-10T09:53:59.625Z,6.25
2023-03-10T09:56:32.550Z,5.85
2023-03-10T09:59:08.137Z,4.63
2023-03-10T10:01:36.253Z,5.35
2023-03-10T10:04:09.320Z,6.43
2023-03-10T10:06:40.026Z,7.57
2023-03-10T10:09:15.965Z,4.57
2023-03-10T10:11:43.799Z,4.30
2023-03-10T10:14:28.434Z,3.95
2023-03-10T10:17:06.101Z,2.85
2023-03-10T10:19:36.869Z,3.25
2023-03-10T10:22:11.422Z,7.18
2023-03-10T10:24:40.616Z,3.70
2023-03-10T10:27:08.568Z,3.13
2023-03-10T10:29:42.331Z,5.00
2023-03-10T10:32:11.935Z,2.00
2023-03-10T10:34:41.100Z,5.35
2023-03-10T10:37:30.715Z,2.17
2023-03-10T10:40:00.407Z,3.53
2023-03-10T10:42:31.103Z,1.52
2023-03-10T10:45:02.306Z,2.08
2023-03-10T10:47:32.687Z,0.70
2023-03-10T10:50:20.125Z,1.88
2023-03-10T10:52:50.549Z,2.85
2023-03-10T10:55:30.178Z,5.80
2023-03-10T10:58:01.686Z,5.10
2023-03-10T11:00:33.996Z,1.60
2023-03-10T11:03:02.488Z,4.05
2023-03-10T11:05:36.020Z,2.40
2023-03-10T11:08:19.970Z,1.65
2023-03-10T11:10:57.397Z,3.80
2023-03-10T11:13:31.544Z,2.85
2023-03-10T11:16:07.819Z,3.08
2023-03-10T11:18:40.192Z,3.63
2023-03-10T11:21:14.125Z,0.70
2023-03-10T11:23:47.124Z,3.45
2023-03-10T11:26:25.785Z,2.83
2023-03-10T11:28:57.896Z,2.28
2023-03-10T11:31:41.128Z,1.95
2023-03-10T11:34:19.572Z,0.82
2023-03-10T11:36:57.126Z,4.07
2023-03-10T11:39:35.088Z,1.08
2023-03-10T11:42:09.531Z,1.52
2023-03-10T11:44:43.113Z,2.38
2023-03-10T11:47:20.369Z,0.93
2023-03-10T11:49:55.462Z,1.38
2023-03-10T11:52:25.012Z,0.50
2023-03-10T11:55:01.044Z,1.35
2023-03-10T11:57:33.999Z,2.40
2023-03-10T12:00:07.778Z,1.95
2023-03-10T12:02:43.520Z,0.57
2023-03-10T12:05:18.583Z,0.30
2023-03-10T12:07:49.625Z,0.85
2023-03-10T12:10:19.597Z,1.25
2023-03-10T12:12:49.224Z,0.82
2023-03-10T12:15:21.145Z,1.58
2023-03-10T12:17:51.516Z,1.27
2023-03-10T12:20:29.390Z,0.50
2023-03-10T12:22:58.275Z,0.40
2023-03-10T12:25:46.883Z,0.40
2023-03-10T12:28:24.426Z,0.60
2023-03-10T12:30:56.393Z,2.20
2023-03-10T12:34:09.019Z,0.68
2023-03-10T12:36:40.229Z,0.90
2023-03-10T12:39:42.519Z,0.50
2023-03-10T12:42:31.065Z,0.60
2023-03-10T12:45:09.161Z,0.70
2023-03-10T12:47:48.128Z,0.90
2023-03-10T12:50:31.118Z,1.38
2023-03-10T12:53:06.693Z,1.67
2023-03-10T12:55:34.674Z,1.73
2023-03-10T12:58:10.196Z,2.75
2023-03-10T13:00:58.473Z,4.22
2023-03-10T13:03:31.153Z,1.30
2023-03-10T13:06:04.728Z,2.83
2023-03-10T13:08:42.079Z,3.40
2023-03-10T13:11:23.228Z,2.30
2023-03-10T13:13:53.729Z,2.78
2023-03-10T13:16:22.121Z,2.45
2023-03-10T13:18:51.959Z,3.67
2023-03-10T13:21:26.737Z,3.58
2023-03-10T13:23:54.734Z,1.65
2023-03-10T13:26:24.257Z,3.17
2023-03-10T13:28:54.630Z,3.53
2023-03-10T13:31:25.569Z,0.75
2023-03-10T13:33:54.774Z,1.58
2023-03-10T13:36:31.360Z,1.20
2023-03-10T13:38:59.666Z,0.60
2023-03-10T13:41:27.748Z,0.85
2023-03-10T13:43:56.362Z,0.95
2023-03-10T13:46:28.093Z,1.15
2023-03-10T13:48:58.913Z,0.60
2023-03-10T13:51:32.113Z,0.90
2023-03-10T13:54:14.671Z,0.80
2023-03-10T13:56:44.502Z,0.88
2023-03-10T13:59:16.253Z,1.05
2023-03-10T14:01:47.547Z,3.28
2023-03-10T14:04:19.159Z,0.95
2023-03-10T14:07:08.313Z,1.35
2023-03-10T14:09:36.413Z,3.40
2023-03-10T14:12:04.608Z,2.17
2023-03-10T14:14:33.688Z,1.95
2023-03-10T14:17:09.371Z,2.90
2023-03-10T14:19:54.984Z,1.85
2023-03-10T14:22:37.639Z,3.38
2023-03-10T14:25:15.516Z,2.92
2023-03-10T14:27:45.904Z,4.78
2023-03-10T14:30:23.752Z,3.40
2023-03-10T14:32:52.043Z,2.50
2023-03-10T14:35:21.833Z,1.63
2023-03-10T14:37:51.925Z,4.30
2023-03-10T14:40:21.475Z,2.67
2023-03-10T14:42:51.554Z,2.70
2023-03-10T14:45:29.237Z,4.90
2023-03-10T14:47:59.316Z,5.75
2023-03-10T14:50:29.129Z,4.15
2023-03-10T14:52:58.603Z,2.40
2023-03-10T14:55:26.626Z,3.80
2023-03-10T14:57:58.191Z,4.30
2023-03-10T15:00:26.520Z,3.08
2023-03-10T15:02:54.750Z,6.32
2023-03-10T15:05:27.668Z,3.63
2023-03-10T15:08:04.251Z,2.88
2023-03-10T15:10:35.531Z,4.78
2023-03-10T15:13:03.931Z,2.35
2023-03-10T15:15:38.254Z,3.30
2023-03-10T15:18:06.625Z,2.25
2023-03-10T15:20:34.596Z,4.10
2023-03-10T15:23:03.882Z,2.55
2023-03-10T15:27:59.582Z,1.90
2023-03-10T15:30:29.886Z,1.52
2023-03-10T15:32:58.078Z,1.38
2023-03-10T15:35:26.578Z,2.25
2023-03-10T15:37:54.490Z,1.23
2023-03-10T15:40:26.021Z,3.25
2023-03-10T15:42:55.731Z,1.75
2023-03-10T15:45:23.748Z,1.30
2023-03-10T15:47:51.870Z,2.08
2023-03-10T15:50:21.040Z,1.75
2023-03-10T15:52:49.581Z,1.75
2023-03-10T15:55:18.220Z,4.53
2023-03-10T15:57:49.829Z,2.63
2023-03-10T16:00:19.452Z,1.80
2023-03-10T16:02:48.310Z,3.60
2023-03-10T16:05:17.184Z,0.75
2023-03-10T16:07:45.169Z,4.60
2023-03-10T16:10:15.577Z,1.33
2023-03-10T16:12:43.529Z,1.30
2023-03-10T16:15:15.337Z,5.85
2023-03-10T16:17:44.935Z,1.67
2023-03-10T16:20:13.969Z,2.22
2023-03-10T16:22:43.114Z,1.88
2023-03-10T16:25:15.157Z,1.90
2023-03-10T16:27:43.788Z,1.90
2023-03-10T16:30:15.386Z,3.00
2023-03-10T16:32:45.142Z,4.40
2023-03-10T16:35:13.542Z,2.50
2023-03-10T16:37:41.461Z,2.43
2023-03-10T16:40:11.784Z,2.55
2023-03-10T16:42:43.240Z,3.00
2023-03-10T16:45:13.442Z,2.72
2023-03-10T16:47:43.795Z,3.20
2023-03-10T16:50:14.181Z,3.22
2023-03-10T16:52:43.308Z,3.22
2023-03-10T16:55:16.921Z,4.30
2023-03-10T16:57:45.749Z,4.93
2023-03-10T17:00:20.877Z,5.43
2023-03-10T17:02:48.985Z,4.22
2023-03-10T17:05:17.352Z,4.18
2023-03-10T17:07:55.133Z,5.90
2023-03-10T17:10:23.623Z,3.47
2023-03-10T17:12:51.526Z,4.63
2023-03-10T17:15:20.742Z,6.03
2023-03-10T17:17:48.636Z,5.20
2023-03-10T17:20:18.376Z,4.32
2023-03-10T17:22:46.403Z,4.40
2023-03-10T17:25:15.201Z,5.32
2023-03-10T17:27:43.734Z,6.07
2023-03-10T17:30:13.838Z,5.63
2023-03-10T17:32:43.128Z,4.15
2023-03-10T17:37:38.836Z,6.40
2023-03-10T17:40:09.321Z,5.53
2023-03-10T17:42:37.223Z,6.60
2023-03-10T17:45:06.901Z,6.07
2023-03-10T17:47:35.085Z,5.75
2023-03-10T17:50:05.017Z,5.03
2023-03-10T17:52:32.952Z,4.47
2023-03-10T17:55:01.016Z,6.70
2023-03-10T17:57:28.969Z,5.15
2023-03-10T17:59:56.823Z,2.78
2023-03-10T18:02:24.809Z,4.38
2023-03-10T18:04:52.819Z,4.00
2023-03-10T18:07:22.034Z,3.30
2023-03-10T18:09:49.888Z,3.80
2023-03-10T18:12:17.786Z,2.85
2023-03-10T18:14:45.721Z,3.67
2023-03-10T18:17:13.603Z,12.60
2023-03-10T18:19:42.011Z,7.88
2023-03-10T18:22:09.875Z,14.23
2023-03-10T18:24:39.554Z,10.98
2023-03-10T18:27:07.526Z,7.30
2023-03-10T18:29:35.421Z,6.93
2023-03-10T18:32:03.364Z,4.22
2023-03-10T18:34:31.210Z,6.68
2023-03-10T18:36:59.071Z,6.18
2023-03-10T18:39:26.978Z,8.82
2023-03-10T18:41:56.290Z,5.97
2023-03-10T18:46:51.882Z,4.15
2023-03-10T18:49:19.817Z,4.32
2023-03-10T18:51:47.795Z,6.20
2023-03-10T18:54:15.853Z,9.05
2023-03-10T18:56:44.303Z,6.45
2023-03-10T18:59:13.574Z,9.80
2023-03-10T19:01:41.520Z,13.88
2023-03-10T19:04:09.415Z,20.70
2023-03-10T19:06:37.459Z,17.10
2023-03-10T19:09:08.495Z,12.02
2023-03-10T19:11:37.431Z,10.38
2023-03-10T19:14:06.730Z,16.17
2023-03-10T19:16:36.590Z,10.43
2023-03-10T19:19:04.544Z,24.88
2023-03-10T19:21:32.456Z,6.35
2023-03-10T19:24:00.312Z,2.47
2023-03-10T19:26:28.357Z,3.70
2023-03-10T19:28:56.214Z,3.50
2023-03-10T19:31:24.483Z,2.55
2023-03-10T19:33:53.814Z,2.10
2023-03-10T19:36:21.736Z,3.05
2023-03-10T19:38:49.844Z,5.47
2023-03-10T19:41:19.404Z,3.88
2023-03-10T19:43:48.936Z,3.83
2023-03-10T19:46:17.254Z,3.10
2023-03-10T19:48:45.580Z,4.40
2023-03-10T19:51:21.852Z,3.37
2023-03-10T19:53:50.971Z,6.30
2023-03-10T19:56:19.858Z,6.18
2023-03-10T19:58:48.801Z,6.53
2023-03-10T20:01:18.278Z,3.90
2023-03-10T20:03:46.838Z,5.65
2023-03-10T20:06:14.740Z,7.47
2023-03-10T20:08:44.114Z,6.28
2023-03-10T20:13:44.046Z,5.90
2023-03-10T20:16:14.221Z,4.07
2023-03-10T20:18:42.758Z,4.97
2023-03-10T20:21:10.737Z,6.30
2023-03-10T20:23:39.225Z,2.40
2023-03-10T20:26:10.207Z,4.57
2023-03-10T20:28:39.587Z,2.95
2023-03-10T20:31:07.546Z,3.83
2023-03-10T20:33:35.671Z,6.20
2023-03-10T20:36:03.715Z,5.32
2023-03-10T20:38:31.630Z,5.90
2023-03-10T20:40:59.527Z,5.22
2023-03-10T20:43:28.802Z,3.22
2023-03-10T20:48:24.720Z,7.22
2023-03-10T20:50:55.113Z,11.95
2023-03-10T20:53:23.185Z,5.10
2023-03-10T20:55:51.243Z,7.55
2023-03-10T20:58:19.158Z,3.63
2023-03-10T21:00:49.006Z,4.22
2023-03-10T21:03:16.836Z,5.25
2023-03-10T21:05:44.965Z,6.28
2023-03-10T21:08:13.684Z,9.77
2023-03-10T21:10:44.589Z,2.95
2023-03-10T21:13:12.950Z,10.20
2023-03-10T21:15:41.070Z,3.92
2023-03-10T21:18:10.334Z,4.22
2023-03-10T21:23:05.872Z,6.05
2023-03-10T21:25:33.723Z,6.18
2023-03-10T21:28:03.071Z,10.23
2023-03-10T21:33:00.125Z,11.10
2023-03-10T21:35:31.890Z,7.72
2023-03-10T21:37:59.852Z,4.20
2023-03-10T21:40:27.852Z,10.38
2023-03-10T21:42:55.934Z,8.48
2023-03-10T21:45:25.560Z,7.70
2023-03-10T21:47:53.512Z,12.00
2023-03-10T21:50:21.539Z,6.43
2023-03-10T21:52:50.846Z,6.00
2023-03-10T22:00:19.873Z,8.23
2023-03-10T22:02:48.394Z,6.97
2023-03-10T22:05:18.174Z,6.85
2023-03-10T22:07:46.042Z,9.40
2023-03-10T22:10:15.916Z,11.55
2023-03-10T22:12:43.846Z,9.38
2023-03-10T22:15:16.966Z,7.13
2023-03-10T22:17:44.958Z,9.23
2023-03-10T22:20:17.040Z,11.07
2023-03-10T22:22:45.139Z,7.25
2023-03-10T22:25:14.426Z,3.70
2023-03-10T22:32:41.907Z,7.43
2023-03-10T22:35:10.706Z,7.97
2023-03-10T22:37:39.421Z,5.63
2023-03-10T22:40:10.352Z,12.85
2023-03-10T22:42:39.223Z,19.60
2023-03-10T22:45:15.583Z,10.82
2023-03-10T22:47:43.494Z,10.82
2023-03-10T22:50:16.030Z,6.00
2023-03-10T22:52:43.863Z,13.10
2023-03-10T22:55:14.763Z,8.30
2023-03-10T22:57:42.620Z,8.02
2023-03-10T23:00:15.847Z,9.25
2023-03-10T23:02:43.813Z,12.13
2023-03-10T23:05:12.166Z,10.32
2023-03-10T23:07:40.258Z,5.95
2023-03-10T23:10:10.315Z,12.77
2023-03-10T23:12:40.509Z,7.85
2023-03-10T23:15:15.306Z,9.27
2023-03-10T23:17:51.906Z,10.05
2023-03-10T23:20:20.039Z,10.45
2023-03-10T23:22:48.407Z,8.40
2023-03-10T23:25:19.661Z,10.07
2023-03-10T23:27:47.614Z,8.60
2023-03-10T23:30:15.995Z,9.98
2023-03-10T23:32:45.967Z,5.83
2023-03-10T23:35:16.685Z,16.67
2023-03-10T23:37:44.647Z,8.32
2023-03-10T23:40:15.862Z,9.20
2023-03-10T23:42:44.774Z,6.60
2023-03-10T23:45:16.332Z,9.57
2023-03-10T23:47:45.131Z,7.95
2023-03-10T23:50:19.075Z,5.75
2023-03-10T23:52:47.276Z,8.27
2023-03-10T23:55:17.151Z,8.90
2023-03-10T23:57:45.170Z,9.07
